createdAt,value
2022-12-18T00:00:30.983Z,102197.91
2022-12-18T00:03:02.115Z,102199.59
2022-12-18T00:05:31.745Z,102194.09
2022-12-18T00:08:01.276Z,102205.72
2022-12-18T00:10:31.637Z,102202.16
2022-12-18T00:13:03.839Z,102200.28
2022-12-18T00:15:36.347Z,102191.75
2022-12-18T00:18:08.060Z,102199.78
2022-12-18T00:20:40.429Z,102195.41
2022-12-18T00:23:10.559Z,102190.28
2022-12-18T00:25:40.280Z,102184.88
2022-12-18T00:28:09.883Z,102194.09
2022-12-18T00:30:39.473Z,102202.16
2022-12-18T00:33:12.471Z,102212.03
2022-12-18T00:35:42.627Z,102216.78
2022-12-18T00:38:13.230Z,102228.38
2022-12-18T00:40:43.227Z,102222.56
2022-12-18T00:43:11.776Z,102209.88
2022-12-18T00:45:42.423Z,102202.00
2022-12-18T00:48:13.648Z,102189.75
2022-12-18T00:50:43.359Z,102213.38
2022-12-18T00:53:13.290Z,102212.50
2022-12-18T00:55:43.953Z,102213.38
2022-12-18T00:58:16.073Z,102209.22
2022-12-18T01:00:45.935Z,102207.31
2022-12-18T01:03:17.400Z,102196.59
2022-12-18T01:05:47.070Z,102193.16
2022-12-18T01:08:16.677Z,102198.69
2022-12-18T01:10:46.690Z,102197.16
2022-12-18T01:13:16.813Z,102203.03
2022-12-18T01:15:51.455Z,102213.72
2022-12-18T01:18:22.383Z,102209.19
2022-12-18T01:20:51.893Z,102193.94
2022-12-18T01:23:21.434Z,102189.06
2022-12-18T01:25:51.069Z,102196.22
2022-12-18T01:28:20.649Z,102203.34
2022-12-18T01:30:50.164Z,102197.91
2022-12-18T01:33:19.664Z,102191.00
2022-12-18T01:35:50.623Z,102188.50
2022-12-18T01:38:20.116Z,102198.44
2022-12-18T01:40:49.712Z,102206.16
2022-12-18T01:43:19.263Z,102211.41
2022-12-18T01:45:49.080Z,102204.00
2022-12-18T01:48:18.691Z,102209.66
2022-12-18T01:50:51.367Z,102210.53
2022-12-18T01:53:24.855Z,102211.38
2022-12-18T01:55:56.114Z,102219.28
2022-12-18T01:58:32.563Z,102208.41
2022-12-18T02:01:02.444Z,102204.06
2022-12-18T02:03:32.122Z,102200.44
2022-12-18T02:06:12.907Z,102199.81
2022-12-18T02:08:48.218Z,102197.81
2022-12-18T02:11:26.893Z,102196.31
2022-12-18T02:14:06.244Z,102196.50
2022-12-18T02:16:45.143Z,102203.88
2022-12-18T02:19:31.271Z,102197.38
2022-12-18T02:22:14.097Z,102202.19
2022-12-18T02:24:54.482Z,102201.63
2022-12-18T02:27:25.483Z,102193.66
2022-12-18T02:29:58.932Z,102190.09
2022-12-18T02:32:36.711Z,102197.25
2022-12-18T02:35:10.699Z,102202.13
2022-12-18T02:37:42.714Z,102199.25
2022-12-18T02:40:15.353Z,102181.50
2022-12-18T02:42:46.543Z,102180.34
2022-12-18T02:45:19.217Z,102179.59
2022-12-18T02:47:52.007Z,102179.75
2022-12-18T02:50:28.291Z,102179.88
2022-12-18T02:53:12.572Z,102182.56
2022-12-18T02:55:57.186Z,102177.78
2022-12-18T02:58:36.409Z,102188.13
2022-12-18T03:01:16.552Z,102197.63
2022-12-18T03:03:52.357Z,102203.28
2022-12-18T03:06:29.139Z,102202.09
2022-12-18T03:09:01.781Z,102202.59
2022-12-18T03:11:54.460Z,102204.56
2022-12-18T03:14:28.514Z,102205.03
2022-12-18T03:17:03.447Z,102206.59
2022-12-18T03:19:35.683Z,102203.88
2022-12-18T03:22:10.054Z,102199.63
2022-12-18T03:24:55.753Z,102197.25
2022-12-18T03:27:27.875Z,102194.59
2022-12-18T03:30:08.636Z,102192.94
2022-12-18T03:32:45.657Z,102183.31
2022-12-18T03:35:19.286Z,102189.06
2022-12-18T03:37:49.290Z,102196.81
2022-12-18T03:40:19.133Z,102190.50
2022-12-18T03:42:52.553Z,102179.88
2022-12-18T03:45:29.802Z,102179.66
2022-12-18T03:48:07.352Z,102184.06
2022-12-18T03:50:49.952Z,102181.28
2022-12-18T03:53:30.742Z,102183.13
2022-12-18T03:56:03.292Z,102195.72
2022-12-18T03:58:40.748Z,102201.81
2022-12-18T04:01:29.731Z,102199.34
2022-12-18T04:04:02.436Z,102197.44
2022-12-18T04:06:37.425Z,102197.69
2022-12-18T04:09:08.124Z,102191.25
2022-12-18T04:11:43.359Z,102195.13
2022-12-18T04:14:17.621Z,102192.50
2022-12-18T04:16:50.172Z,102200.69
2022-12-18T04:19:22.482Z,102194.59
2022-12-18T04:21:54.923Z,102205.59
2022-12-18T04:24:25.663Z,102199.91
2022-12-18T04:27:10.153Z,102209.13
2022-12-18T04:29:45.972Z,102198.94
2022-12-18T04:32:17.127Z,102197.25
2022-12-18T04:34:47.503Z,102209.66
2022-12-18T04:37:17.113Z,102216.03
2022-12-18T04:39:47.643Z,102206.09
2022-12-18T04:42:24.314Z,102207.97
2022-12-18T04:44:54.108Z,102218.78
2022-12-18T04:47:25.175Z,102216.03
2022-12-18T04:49:54.731Z,102207.81
2022-12-18T04:52:26.822Z,102201.53
2022-12-18T04:54:56.500Z,102202.34
2022-12-18T04:57:26.113Z,102204.09
2022-12-18T04:59:55.753Z,102193.03
2022-12-18T05:02:26.876Z,102208.53
2022-12-18T05:04:56.518Z,102206.16
2022-12-18T05:07:26.040Z,102204.19
2022-12-18T05:09:55.563Z,102213.84
2022-12-18T05:12:25.148Z,102224.91
2022-12-18T05:14:54.765Z,102211.31
2022-12-18T05:17:24.272Z,102206.91
2022-12-18T05:19:55.506Z,102203.41
2022-12-18T05:22:26.101Z,102201.69
2022-12-18T05:24:55.723Z,102198.03
2022-12-18T05:27:25.212Z,102189.22
2022-12-18T05:29:54.765Z,102194.72
2022-12-18T05:32:24.303Z,102202.69
2022-12-18T05:34:55.234Z,102200.44
2022-12-18T05:37:24.832Z,102197.38
2022-12-18T05:39:54.493Z,102201.69
2022-12-18T05:42:24.014Z,102210.31
2022-12-18T05:44:53.662Z,102203.66
2022-12-18T05:47:23.213Z,102195.72
2022-12-18T05:49:52.814Z,102199.16
2022-12-18T05:52:23.828Z,102196.56
2022-12-18T05:54:53.548Z,102182.72
2022-12-18T05:57:23.135Z,102189.38
2022-12-18T05:59:52.681Z,102201.00
2022-12-18T06:02:22.680Z,102199.44
2022-12-18T06:04:52.162Z,102196.78
2022-12-18T06:07:21.723Z,102192.44
2022-12-18T06:09:52.762Z,102198.34
2022-12-18T06:12:22.367Z,102200.41
2022-12-18T06:14:51.865Z,102210.03
2022-12-18T06:17:21.442Z,102210.97
2022-12-18T06:19:51.092Z,102203.66
2022-12-18T06:22:21.138Z,102210.97
2022-12-18T06:24:52.083Z,102212.72
2022-12-18T06:27:21.874Z,102216.22
2022-12-18T06:29:51.443Z,102209.97
2022-12-18T06:32:21.225Z,102223.06
2022-12-18T06:34:50.893Z,102223.03
2022-12-18T06:37:20.473Z,102228.47
2022-12-18T06:39:51.407Z,102231.94
2022-12-18T06:42:20.990Z,102236.31
2022-12-18T06:44:50.675Z,102234.72
2022-12-18T06:47:20.320Z,102241.53
2022-12-18T06:49:49.883Z,102230.94
2022-12-18T06:52:19.452Z,102237.84
2022-12-18T06:54:49.158Z,102236.59
2022-12-18T06:57:20.374Z,102239.19
2022-12-18T06:59:50.070Z,102237.25
2022-12-18T07:02:20.060Z,102235.28
2022-12-18T07:04:52.725Z,102225.97
2022-12-18T07:07:22.307Z,102242.75
2022-12-18T07:09:52.512Z,102238.81
2022-12-18T07:12:23.671Z,102246.78
2022-12-18T07:14:53.233Z,102260.03
2022-12-18T07:17:22.765Z,102249.44
2022-12-18T07:19:52.277Z,102260.16
2022-12-18T07:22:21.846Z,102258.41
2022-12-18T07:24:52.803Z,102256.56
2022-12-18T07:27:24.142Z,102263.25
2022-12-18T07:29:54.217Z,102260.91
2022-12-18T07:32:23.882Z,102252.94
2022-12-18T07:34:53.543Z,102244.47
2022-12-18T07:37:23.210Z,102232.81
2022-12-18T07:39:52.693Z,102234.34
2022-12-18T07:42:36.695Z,102232.50
2022-12-18T07:45:07.221Z,102230.06
2022-12-18T07:47:37.580Z,102230.75
2022-12-18T07:50:08.082Z,102232.63
2022-12-18T07:52:37.744Z,102228.75
2022-12-18T07:55:08.052Z,102221.75
2022-12-18T07:57:50.435Z,102223.13
2022-12-18T08:00:21.399Z,102224.66
2022-12-18T08:02:51.059Z,102228.91
2022-12-18T08:05:21.854Z,102239.88
2022-12-18T08:07:51.601Z,102241.00
2022-12-18T08:10:24.133Z,102240.19
2022-12-18T08:12:57.043Z,102237.16
2022-12-18T08:15:29.644Z,102240.75
2022-12-18T08:17:59.393Z,102238.91
2022-12-18T08:20:29.029Z,102231.47
2022-12-18T08:22:59.251Z,102226.97
2022-12-18T08:25:28.814Z,102221.34
2022-12-18T08:28:00.344Z,102209.38
2022-12-18T08:30:29.929Z,102206.56
2022-12-18T08:32:59.764Z,102204.81
2022-12-18T08:35:34.260Z,102191.13
2022-12-18T08:38:06.015Z,102189.06
2022-12-18T08:40:35.853Z,102199.59
2022-12-18T08:43:24.359Z,102199.81
2022-12-18T08:45:53.955Z,102194.22
2022-12-18T08:48:23.636Z,102191.22
2022-12-18T08:50:57.738Z,102196.94
2022-12-18T08:53:30.332Z,102200.38
2022-12-18T08:56:04.014Z,102206.72
2022-12-18T08:58:34.995Z,102191.13
2022-12-18T09:01:05.033Z,102187.38
2022-12-18T09:03:35.845Z,102180.88
2022-12-18T09:06:06.183Z,102184.16
2022-12-18T09:08:37.870Z,102186.69
2022-12-18T09:11:15.564Z,102185.19
2022-12-18T09:13:46.574Z,102190.16
2022-12-18T09:16:16.425Z,102184.13
2022-12-18T09:18:46.152Z,102185.72
2022-12-18T09:21:17.347Z,102195.28
2022-12-18T09:23:51.317Z,102196.84
2022-12-18T09:26:21.017Z,102178.91
2022-12-18T09:28:52.332Z,102185.53
2022-12-18T09:31:26.321Z,102179.81
2022-12-18T09:33:57.861Z,102184.38
2022-12-18T09:36:27.582Z,102178.09
2022-12-18T09:38:57.448Z,102192.41
2022-12-18T09:41:42.145Z,102187.69
2022-12-18T09:44:24.949Z,102185.59
2022-12-18T09:47:05.003Z,102192.81
2022-12-18T09:49:38.442Z,102191.09
2022-12-18T09:52:14.313Z,102198.84
2022-12-18T09:54:48.634Z,102209.13
2022-12-18T09:57:23.160Z,102202.03
2022-12-18T09:59:59.144Z,102185.97
2022-12-18T10:02:32.844Z,102188.97
2022-12-18T10:05:08.337Z,102186.28
2022-12-18T10:07:49.833Z,102187.09
2022-12-18T10:10:33.317Z,102186.97
2022-12-18T10:13:12.283Z,102191.75
2022-12-18T10:15:55.254Z,102187.88
2022-12-18T10:18:35.697Z,102192.94
2022-12-18T10:21:11.919Z,102190.53
2022-12-18T10:23:49.670Z,102191.03
2022-12-18T10:26:19.642Z,102184.06
2022-12-18T10:28:50.632Z,102164.47
2022-12-18T10:31:24.584Z,102158.63
2022-12-18T10:33:56.292Z,102136.72
2022-12-18T10:36:26.527Z,102138.53
2022-12-18T10:38:56.118Z,102119.16
2022-12-18T10:41:29.703Z,102111.94
2022-12-18T10:44:18.362Z,102118.78
2022-12-18T10:46:51.759Z,102112.97
2022-12-18T10:49:24.913Z,102110.56
2022-12-18T10:52:06.835Z,102110.44
2022-12-18T10:54:37.767Z,102114.00
2022-12-18T10:57:35.296Z,102108.94
2022-12-18T11:00:24.961Z,102108.25
2022-12-18T11:02:57.015Z,102113.28
2022-12-18T11:05:33.192Z,102107.78
2022-12-18T11:08:03.828Z,102107.94
2022-12-18T11:10:35.091Z,102083.63
2022-12-18T11:13:19.932Z,102097.81
2022-12-18T11:15:50.325Z,102080.66
2022-12-18T11:18:27.603Z,102071.75
2022-12-18T11:20:59.999Z,102076.31
2022-12-18T11:23:30.149Z,102062.75
2022-12-18T11:26:01.975Z,102051.13
2022-12-18T11:28:41.876Z,102041.09
2022-12-18T11:31:24.549Z,102041.16
2022-12-18T11:34:28.779Z,102039.28
2022-12-18T11:37:02.051Z,102027.09
2022-12-18T11:39:37.899Z,102039.03
2022-12-18T11:42:15.142Z,102029.38
2022-12-18T11:44:51.237Z,102030.41
2022-12-18T11:47:31.959Z,102024.66
2022-12-18T11:50:06.210Z,102024.81
2022-12-18T11:52:40.673Z,102016.66
2022-12-18T11:55:16.329Z,102019.22
2022-12-18T11:57:55.132Z,102023.66
2022-12-18T12:00:26.061Z,102010.44
2022-12-18T12:03:21.188Z,102006.56
2022-12-18T12:06:05.273Z,101998.75
2022-12-18T12:08:48.252Z,102007.31
2022-12-18T12:11:28.309Z,101996.47
2022-12-18T12:14:14.801Z,101976.63
2022-12-18T12:16:52.452Z,101988.13
2022-12-18T12:19:38.904Z,101979.88
2022-12-18T12:22:17.683Z,101975.88
2022-12-18T12:24:59.302Z,101974.75
2022-12-18T12:27:41.003Z,101971.13
2022-12-18T12:30:13.845Z,101977.19
2022-12-18T12:33:15.362Z,101964.66
2022-12-18T12:35:54.817Z,101960.75
2022-12-18T12:38:30.682Z,101944.78
2022-12-18T12:41:04.127Z,101965.09
2022-12-18T12:43:49.562Z,101968.78
2022-12-18T12:46:22.495Z,101966.09
2022-12-18T12:48:54.932Z,101964.34
2022-12-18T12:51:27.553Z,101964.66
2022-12-18T12:54:00.700Z,101962.22
2022-12-18T12:56:40.315Z,101960.72
2022-12-18T12:59:16.554Z,101961.91
2022-12-18T13:01:57.242Z,101971.25
2022-12-18T13:04:37.383Z,101955.72
2022-12-18T13:07:14.936Z,101957.72
2022-12-18T13:10:26.809Z,101953.00
2022-12-18T13:12:59.855Z,101946.22
2022-12-18T13:15:38.323Z,101940.38
2022-12-18T13:18:23.860Z,101937.00
2022-12-18T13:21:06.452Z,101934.00
2022-12-18T13:23:39.545Z,101913.78
2022-12-18T13:26:37.943Z,101926.41
2022-12-18T13:29:07.808Z,101913.78
2022-12-18T13:32:23.447Z,101917.59
2022-12-18T13:35:27.003Z,101897.91
2022-12-18T13:37:57.642Z,101891.84
2022-12-18T13:40:59.782Z,101873.13
2022-12-18T13:43:44.666Z,101873.75
2022-12-18T13:46:26.872Z,101876.31
2022-12-18T13:49:04.241Z,101865.63
2022-12-18T13:51:36.222Z,101856.56
2022-12-18T13:54:20.254Z,101852.25
2022-12-18T13:56:51.054Z,101858.56
2022-12-18T13:59:24.770Z,101853.03
2022-12-18T14:01:57.106Z,101858.97
2022-12-18T14:04:29.675Z,101852.69
2022-12-18T14:07:04.302Z,101866.84
2022-12-18T14:09:39.494Z,101857.53
2022-12-18T14:12:36.014Z,101851.41
2022-12-18T14:15:17.643Z,101853.63
2022-12-18T14:17:47.496Z,101851.22
2022-12-18T14:20:18.043Z,101849.69
2022-12-18T14:22:49.282Z,101853.38
2022-12-18T14:25:21.908Z,101862.03
2022-12-18T14:27:55.605Z,101856.13
2022-12-18T14:30:32.642Z,101864.94
2022-12-18T14:33:03.978Z,101866.66
2022-12-18T14:35:34.179Z,101865.28
2022-12-18T14:38:24.476Z,101847.25
2022-12-18T14:40:59.593Z,101850.59
2022-12-18T14:43:31.027Z,101855.19
2022-12-18T14:46:03.246Z,101836.28
2022-12-18T14:48:40.015Z,101842.41
2022-12-18T14:51:19.102Z,101842.16
2022-12-18T14:53:54.841Z,101840.59
2022-12-18T14:56:27.127Z,101850.94
2022-12-18T14:58:59.613Z,101848.03
2022-12-18T15:01:33.434Z,101832.50
2022-12-18T15:04:05.304Z,101828.69
2022-12-18T15:06:37.643Z,101816.44
2022-12-18T15:09:22.862Z,101821.44
2022-12-18T15:11:58.567Z,101823.84
2022-12-18T15:14:42.368Z,101830.78
2022-12-18T15:17:21.582Z,101828.25
2022-12-18T15:19:54.925Z,101830.94
2022-12-18T15:22:28.684Z,101822.63
2022-12-18T15:25:00.703Z,101821.97
2022-12-18T15:27:33.743Z,101829.72
2022-12-18T15:30:19.248Z,101817.13
2022-12-18T15:32:51.315Z,101808.31
2022-12-18T15:35:25.290Z,101799.94
2022-12-18T15:37:55.152Z,101798.81
2022-12-18T15:40:26.235Z,101802.09
2022-12-18T15:43:15.073Z,101795.53
2022-12-18T15:45:44.693Z,101783.88
2022-12-18T15:48:23.744Z,101774.22
2022-12-18T15:50:57.959Z,101768.00
2022-12-18T15:53:30.513Z,101779.31
2022-12-18T15:56:18.283Z,101774.22
2022-12-18T15:58:47.853Z,101762.47
2022-12-18T16:01:29.941Z,101772.41
2022-12-18T16:04:02.080Z,101769.91
2022-12-18T16:06:51.084Z,101763.34
2022-12-18T16:09:26.082Z,101768.59
2022-12-18T16:11:56.504Z,101773.97
2022-12-18T16:14:28.104Z,101764.22
2022-12-18T16:17:00.244Z,101757.91
2022-12-18T16:19:31.723Z,101744.25
2022-12-18T16:22:01.536Z,101743.38
2022-12-18T16:24:33.484Z,101728.63
2022-12-18T16:27:03.294Z,101727.69
2022-12-18T16:29:32.873Z,101729.59
2022-12-18T16:32:03.342Z,101736.84
2022-12-18T16:34:36.325Z,101726.75
2022-12-18T16:37:08.275Z,101710.09
2022-12-18T16:39:39.013Z,101707.88
2022-12-18T16:42:13.648Z,101711.13
2022-12-18T16:44:43.826Z,101719.06
2022-12-18T16:47:15.326Z,101719.16
2022-12-18T16:49:47.202Z,101725.97
2022-12-18T16:52:17.128Z,101719.47
2022-12-18T16:54:48.064Z,101724.94
2022-12-18T16:57:19.683Z,101714.56
2022-12-18T16:59:50.933Z,101701.03
2022-12-18T17:02:23.515Z,101686.44
2022-12-18T17:04:57.887Z,101685.47
2022-12-18T17:07:29.514Z,101675.91
2022-12-18T17:09:59.655Z,101679.50
2022-12-18T17:12:29.623Z,101670.56
2022-12-18T17:15:00.304Z,101672.09
2022-12-18T17:17:30.151Z,101674.94
2022-12-18T17:20:01.180Z,101674.66
2022-12-18T17:22:30.892Z,101662.91
2022-12-18T17:25:00.493Z,101671.13
2022-12-18T17:27:30.084Z,101669.22
2022-12-18T17:29:59.708Z,101659.97
2022-12-18T17:32:29.603Z,101648.22
2022-12-18T17:35:06.805Z,101661.19
2022-12-18T17:37:38.049Z,101645.22
2022-12-18T17:40:10.244Z,101642.84
2022-12-18T17:42:39.923Z,101635.97
2022-12-18T17:45:10.783Z,101636.56
2022-12-18T17:47:40.772Z,101634.06
2022-12-18T17:50:12.012Z,101637.50
2022-12-18T17:52:42.269Z,101636.00
2022-12-18T17:55:12.072Z,101623.50
2022-12-18T17:57:41.860Z,101628.00
2022-12-18T18:00:12.934Z,101610.38
2022-12-18T18:02:43.229Z,101612.28
2022-12-18T18:05:14.953Z,101612.09
2022-12-18T18:07:47.516Z,101608.75
2022-12-18T18:10:17.383Z,101604.94
2022-12-18T18:13:04.302Z,101605.97
2022-12-18T18:15:34.102Z,101596.22
2022-12-18T18:18:08.784Z,101594.41
2022-12-18T18:20:42.889Z,101589.72
2022-12-18T18:23:12.843Z,101594.88
2022-12-18T18:25:42.412Z,101590.09
2022-12-18T18:28:12.133Z,101590.09
2022-12-18T18:30:41.623Z,101584.06
2022-12-18T18:33:12.136Z,101586.00
2022-12-18T18:35:54.477Z,101583.88
2022-12-18T18:38:24.346Z,101596.97
2022-12-18T18:41:08.123Z,101602.53
2022-12-18T18:45:13.574Z,101597.16
2022-12-18T18:49:06.539Z,101608.84
2022-12-18T18:51:54.625Z,101617.06
2022-12-18T18:55:03.798Z,101609.22
2022-12-18T18:57:49.843Z,101610.91
2022-12-18T19:00:37.966Z,101598.88
2022-12-18T19:03:26.750Z,101594.66
2022-12-18T19:06:19.295Z,101605.97
2022-12-18T19:09:07.772Z,101600.63
2022-12-18T19:12:13.309Z,101614.94
2022-12-18T19:15:00.835Z,101617.41
2022-12-18T19:17:50.286Z,101623.06
2022-12-18T19:20:39.241Z,101629.22
2022-12-18T19:23:29.253Z,101639.06
2022-12-18T19:26:27.678Z,101629.41
2022-12-18T19:29:16.235Z,101621.44
2022-12-18T19:32:03.799Z,101628.63
2022-12-18T19:34:51.856Z,101625.44
2022-12-18T19:37:39.952Z,101633.66
2022-12-18T19:40:29.085Z,101619.91
2022-12-18T19:43:17.423Z,101608.66
2022-12-18T19:46:06.495Z,101622.03
2022-12-18T19:48:54.394Z,101638.25
2022-12-18T19:51:42.078Z,101642.38
2022-12-18T19:54:31.223Z,101647.47
2022-12-18T19:57:20.516Z,101658.34
2022-12-18T20:00:12.876Z,101650.50
2022-12-18T20:03:15.613Z,101635.47
2022-12-18T20:06:10.534Z,101636.34
2022-12-18T20:09:01.210Z,101645.50
2022-12-18T20:11:49.383Z,101627.38
2022-12-18T20:14:38.684Z,101633.09
2022-12-18T20:17:26.318Z,101624.28
2022-12-18T20:20:14.735Z,101634.03
2022-12-18T20:23:02.433Z,101623.13
2022-12-18T20:25:50.019Z,101626.28
2022-12-18T20:28:37.853Z,101624.47
2022-12-18T20:31:29.418Z,101623.25
2022-12-18T20:34:17.475Z,101628.84
2022-12-18T20:38:00.384Z,101629.28
2022-12-18T20:40:48.814Z,101623.69
2022-12-18T20:43:36.518Z,101636.31
2022-12-18T20:46:24.854Z,101623.69
2022-12-18T20:49:13.410Z,101638.88
2022-12-18T20:52:03.268Z,101624.94
2022-12-18T20:54:52.524Z,101621.53
2022-12-18T20:57:40.451Z,101632.91
2022-12-18T21:00:28.325Z,101625.06
2022-12-18T21:03:16.295Z,101635.84
2022-12-18T21:06:08.223Z,101623.13
2022-12-18T21:08:56.185Z,101621.53
2022-12-18T21:12:02.794Z,101624.66
2022-12-18T21:14:50.640Z,101619.28
2022-12-18T21:17:44.090Z,101624.66
2022-12-18T21:20:32.425Z,101624.94
2022-12-18T21:23:20.073Z,101612.91
2022-12-18T21:26:26.652Z,101609.19
2022-12-18T21:29:21.733Z,101609.56
2022-12-18T21:32:09.439Z,101604.78
2022-12-18T21:34:57.543Z,101601.59
2022-12-18T21:37:45.339Z,101591.00
2022-12-18T21:40:33.176Z,101594.66
2022-12-18T21:43:38.663Z,101608.78
2022-12-18T21:46:27.577Z,101611.56
2022-12-18T21:49:17.595Z,101593.75
2022-12-18T21:52:05.341Z,101601.97
2022-12-18T21:54:53.324Z,101596.34
2022-12-18T21:57:41.046Z,101597.56
2022-12-18T22:00:28.775Z,101595.19
2022-12-18T22:03:19.391Z,101586.44
2022-12-18T22:06:09.838Z,101583.75
2022-12-18T22:08:57.897Z,101579.34
2022-12-18T22:11:46.144Z,101581.09
2022-12-18T22:14:33.905Z,101570.94
2022-12-18T22:17:21.486Z,101575.53
2022-12-18T22:20:13.711Z,101568.19
2022-12-18T22:23:04.100Z,101580.31
2022-12-18T22:25:53.840Z,101569.06
2022-12-18T22:28:58.955Z,101568.88
2022-12-18T22:31:46.432Z,101571.44
2022-12-18T22:34:36.546Z,101576.72
2022-12-18T22:37:25.680Z,101561.03
2022-12-18T22:40:24.621Z,101569.84
2022-12-18T22:43:13.510Z,101567.25
2022-12-18T22:46:04.236Z,101555.31
2022-12-18T22:48:52.204Z,101551.09
2022-12-18T22:51:39.823Z,101553.41
2022-12-18T22:54:29.044Z,101540.94
2022-12-18T22:57:16.968Z,101537.72
2022-12-18T23:00:04.777Z,101541.06
2022-12-18T23:02:59.226Z,101540.09
2022-12-18T23:05:50.502Z,101533.88
2022-12-18T23:08:40.034Z,101536.38
2022-12-18T23:11:29.357Z,101540.94
2022-12-18T23:14:17.622Z,101535.78
2022-12-18T23:17:05.494Z,101526.44
2022-12-18T23:19:52.973Z,101536.56
2022-12-18T23:22:40.367Z,101505.78
2022-12-18T23:25:28.339Z,101534.66
2022-12-18T23:28:17.354Z,101530.25
2022-12-18T23:31:07.491Z,101526.44
2022-12-18T23:33:56.954Z,101518.69
2022-12-18T23:36:46.206Z,101522.22
2022-12-18T23:39:34.276Z,101525.09
2022-12-18T23:42:22.127Z,101521.28
2022-12-18T23:45:17.628Z,101519.53
2022-12-18T23:48:06.244Z,101508.75
2022-12-18T23:50:53.971Z,101504.66
2022-12-18T23:53:42.340Z,101503.22
2022-12-18T23:56:31.300Z,101503.09
2022-12-18T23:59:23.956Z,101505.22
